This is the latest recevied weather packets stored in our database for station/object KD7DVD-1. If no packets are shown the sender has not sent any weather packets the latest 10 day(s).
| Time | Temp. | Humidity | Pressure | Rain* | Wind** | Luminosity | Snow |
|---|---|---|---|---|---|---|---|
| 1777743016 | 15° C | 78% | 1016.4 hPa | 0 mm | - | - | - |
| 1777741216 | 13.89° C | 81% | 1016.8 hPa | 0 mm | - | - | - |
| 1777739416 | 13.33° C | 81% | 1016.7 hPa | 0 mm | - | - | - |
| 1777737616 | 12.78° C | 83% | 1016.7 hPa | 0 mm | - | - | - |
| 1777735815 | 12.22° C | 85% | 1016.5 hPa | 0 mm | - | - | - |
| 1777734020 | 12.22° C | 86% | 1016.4 hPa | 0 mm | - | - | - |
| 1777732215 | 11.11° C | 89% | 1016.4 hPa | 0 mm | - | - | - |
| 1777730417 | 10.56° C | 90% | 1016.4 hPa | 0 mm | - | - | - |
| 1777728617 | 10.56° C | 90% | 1016.6 hPa | 0 mm | - | - | - |
| 1777726817 | 10.56° C | 90% | 1016.4 hPa | 0 mm | - | - | - |
| 1777725017 | 10.56° C | 89% | 1016.4 hPa | 0 mm | - | - | - |
| 1777723217 | 10.56° C | 88% | 1016.7 hPa | 0 mm | - | - | - |
| 1777721417 | 10.56° C | 88% | 1016.6 hPa | 0 mm | - | - | - |
| 1777719617 | 11.11° C | 87% | 1017 hPa | 0 mm | - | - | - |
| 1777717817 | 11.67° C | 85% | 1016.4 hPa | 0 mm | - | - | - |
| 1777716017 | 11.67° C | 84% | 1016 hPa | 0 mm | - | - | - |
| 1777714217 | 12.22° C | 82% | 1016.2 hPa | 0 mm | - | - | - |
| 1777712417 | 12.78° C | 77% | 1016.4 hPa | 0 mm | - | - | - |
| 1777710616 | 12.78° C | 74% | 1016.2 hPa | 0 mm | - | - | - |
| 1777708816 | 12.78° C | 74% | 1016.2 hPa | 0 mm | - | - | - |
| 1777707016 | 13.33° C | 75% | 1016.3 hPa | 0 mm | - | - | - |
| 1777705216 | 13.89° C | 73% | 1016 hPa | 0 mm | - | - | - |
| 1777703416 | 15° C | 66% | 1016 hPa | 0 mm | - | - | - |
| 1777701615 | 15.56° C | 68% | 1016 hPa | 0 mm | - | - | - |
| 1777699817 | 16.11° C | 64% | 1015.4 hPa | 0 mm | - | - | - |
* Rain latest hour (hover to see other rain measurements)
** Current wind speed in m/s (hover to see current wind gust speed)